createdAt,value
2019-04-27T00:02:01.169Z,8.90
2019-04-27T00:04:43.082Z,8.80
2019-04-27T00:07:40.135Z,8.80
2019-04-27T00:10:16.279Z,8.80
2019-04-27T00:12:45.370Z,8.80
2019-04-27T00:15:19.321Z,8.80
2019-04-27T00:18:09.431Z,8.80
2019-04-27T00:20:54.186Z,8.70
2019-04-27T00:23:24.359Z,8.60
2019-04-27T00:25:53.455Z,8.60
2019-04-27T00:28:23.008Z,8.50
2019-04-27T00:30:53.129Z,8.40
2019-04-27T00:33:23.798Z,8.30
2019-04-27T00:36:07.473Z,8.20
2019-04-27T00:38:54.618Z,8.10
2019-04-27T00:41:24.237Z,8.00
2019-04-27T00:43:53.461Z,7.90
2019-04-27T00:46:22.922Z,7.80
2019-04-27T00:48:53.394Z,7.70
2019-04-27T00:51:23.147Z,7.60
2019-04-27T00:53:53.570Z,7.50
2019-04-27T00:56:34.454Z,7.50
2019-04-27T00:59:37.903Z,7.50
2019-04-27T01:02:17.482Z,7.40
2019-04-27T01:04:46.567Z,7.40
2019-04-27T01:07:16.021Z,7.40
2019-04-27T01:09:45.199Z,7.40
2019-04-27T01:12:15.066Z,7.40
2019-04-27T01:14:45.156Z,7.40
2019-04-27T01:17:14.310Z,7.40
2019-04-27T01:19:43.338Z,7.30
2019-04-27T01:22:12.547Z,7.30
2019-04-27T01:24:41.674Z,7.30
2019-04-27T01:27:23.014Z,7.30
2019-04-27T01:29:52.494Z,7.20
2019-04-27T01:32:21.682Z,7.20
2019-04-27T01:34:50.797Z,7.20
2019-04-27T01:37:21.189Z,7.20
2019-04-27T01:39:50.538Z,7.20
2019-04-27T01:42:19.792Z,7.20
2019-04-27T01:44:50.796Z,7.20
2019-04-27T01:47:19.635Z,7.20
2019-04-27T01:50:08.727Z,7.20
2019-04-27T01:52:38.555Z,7.20
2019-04-27T01:55:08.733Z,7.20
2019-04-27T01:57:38.655Z,7.20
2019-04-27T02:00:27.565Z,7.20
2019-04-27T02:02:59.533Z,7.20
2019-04-27T02:05:49.327Z,7.20
2019-04-27T02:08:19.585Z,7.20
2019-04-27T02:10:49.600Z,7.20
2019-04-27T02:13:18.994Z,7.20
2019-04-27T02:15:48.723Z,7.20
2019-04-27T02:18:19.424Z,7.20
2019-04-27T02:20:49.534Z,7.20
2019-04-27T02:23:19.213Z,7.20
2019-04-27T02:25:49.680Z,7.20
2019-04-27T02:28:35.192Z,7.20
2019-04-27T02:31:34.761Z,7.10
2019-04-27T02:34:15.855Z,7.30
2019-04-27T02:36:44.938Z,7.10
2019-04-27T02:39:14.048Z,7.10
2019-04-27T02:41:43.581Z,7.00
2019-04-27T02:44:36.666Z,7.10
2019-04-27T02:47:05.898Z,7.00
2019-04-27T02:49:34.975Z,7.00
2019-04-27T02:52:23.663Z,6.90
2019-04-27T02:54:52.932Z,6.90
2019-04-27T02:57:22.021Z,6.90
2019-04-27T02:59:51.118Z,6.80
2019-04-27T03:02:31.409Z,6.80
2019-04-27T03:05:00.814Z,6.70
2019-04-27T03:07:30.420Z,6.70
2019-04-27T03:10:02.232Z,6.70
2019-04-27T03:12:35.379Z,6.60
2019-04-27T03:15:35.619Z,6.60
2019-04-27T03:18:24.248Z,6.50
2019-04-27T03:20:56.621Z,6.60
2019-04-27T03:23:25.703Z,6.50
2019-04-27T03:26:15.462Z,6.50
2019-04-27T03:28:44.559Z,6.50
2019-04-27T03:31:14.231Z,6.40
2019-04-27T03:33:43.583Z,6.40
2019-04-27T03:36:13.250Z,6.30
2019-04-27T03:38:42.552Z,6.40
2019-04-27T03:41:11.622Z,6.50
2019-04-27T03:43:40.807Z,6.50
2019-04-27T03:46:13.076Z,6.60
2019-04-27T03:48:42.164Z,6.80
2019-04-27T03:51:20.543Z,6.80
2019-04-27T03:54:23.965Z,6.80
2019-04-27T03:57:21.246Z,6.80
2019-04-27T04:00:04.991Z,6.80
2019-04-27T04:02:34.117Z,6.70
2019-04-27T04:05:03.223Z,6.80
2019-04-27T04:07:32.314Z,6.80
2019-04-27T04:10:01.422Z,6.90
2019-04-27T04:12:41.259Z,7.00
2019-04-27T04:15:13.722Z,7.10
2019-04-27T04:17:42.893Z,7.20
2019-04-27T04:20:11.961Z,7.30
2019-04-27T04:22:41.024Z,7.40
2019-04-27T04:25:10.905Z,7.50
2019-04-27T04:27:42.882Z,7.60
2019-04-27T04:30:12.701Z,7.70
2019-04-27T04:32:41.876Z,7.80
2019-04-27T04:35:22.409Z,7.90
2019-04-27T04:37:52.973Z,7.90
2019-04-27T04:40:30.460Z,8.00
2019-04-27T04:43:16.561Z,8.10
2019-04-27T04:46:22.818Z,8.20
2019-04-27T04:48:51.971Z,8.20
2019-04-27T04:51:21.060Z,8.20
2019-04-27T04:53:51.781Z,8.30
2019-04-27T04:56:21.122Z,8.30
2019-04-27T04:58:50.180Z,8.30
2019-04-27T05:01:19.721Z,8.30
2019-04-27T05:03:48.973Z,8.30
2019-04-27T05:06:18.976Z,8.30
2019-04-27T05:08:49.381Z,8.40
2019-04-27T05:11:19.580Z,8.40
2019-04-27T05:13:49.416Z,8.50
2019-04-27T05:16:19.015Z,8.50
2019-04-27T05:18:49.557Z,8.60
2019-04-27T05:21:33.142Z,8.70
2019-04-27T05:24:02.285Z,8.70
2019-04-27T05:26:31.397Z,8.80
2019-04-27T05:29:00.508Z,8.90
2019-04-27T05:31:29.876Z,8.90
2019-04-27T05:33:59.430Z,8.90
2019-04-27T05:36:29.626Z,9.00
2019-04-27T05:38:59.732Z,9.00
2019-04-27T05:41:31.139Z,9.00
2019-04-27T05:44:22.130Z,9.00
2019-04-27T05:47:09.995Z,9.10
2019-04-27T05:49:44.547Z,9.10
2019-04-27T05:52:29.954Z,9.00
2019-04-27T05:54:59.589Z,9.00
2019-04-27T05:57:31.479Z,9.10
2019-04-27T06:00:02.067Z,9.10
2019-04-27T06:02:30.830Z,9.10
2019-04-27T06:05:00.283Z,9.10
2019-04-27T06:07:29.861Z,9.10
2019-04-27T06:09:59.885Z,9.10
2019-04-27T06:12:29.928Z,9.20
2019-04-27T06:14:59.949Z,9.20
2019-04-27T06:17:30.064Z,9.30
2019-04-27T06:19:59.767Z,9.30
2019-04-27T06:22:29.427Z,9.30
2019-04-27T06:25:00.102Z,9.40
2019-04-27T06:27:30.524Z,9.40
2019-04-27T06:30:00.203Z,9.50
2019-04-27T06:32:31.449Z,9.60
2019-04-27T06:35:02.017Z,9.60
2019-04-27T06:37:31.197Z,9.70
2019-04-27T06:40:00.467Z,9.70
2019-04-27T06:42:29.985Z,9.80
2019-04-27T06:45:01.619Z,9.90
2019-04-27T06:47:31.305Z,9.90
2019-04-27T06:50:00.530Z,9.90
2019-04-27T06:52:30.013Z,10.00
2019-04-27T06:55:00.599Z,10.00
2019-04-27T06:57:30.608Z,10.00
2019-04-27T07:00:00.389Z,10.10
2019-04-27T07:02:29.719Z,10.10
2019-04-27T07:04:59.355Z,10.10
2019-04-27T07:07:29.443Z,10.20
2019-04-27T07:09:59.330Z,10.30
2019-04-27T07:12:30.471Z,10.30
2019-04-27T07:14:59.557Z,10.40
2019-04-27T07:17:29.172Z,10.30
2019-04-27T07:19:59.421Z,10.30
2019-04-27T07:22:29.908Z,10.40
2019-04-27T07:24:59.598Z,10.50
2019-04-27T07:27:29.253Z,10.70
2019-04-27T07:30:00.842Z,10.80
2019-04-27T07:32:29.307Z,11.00
2019-04-27T07:34:58.656Z,11.10
2019-04-27T07:37:29.432Z,11.20
2019-04-27T07:39:59.278Z,11.30
2019-04-27T07:42:31.527Z,11.40
2019-04-27T07:45:06.172Z,11.60
2019-04-27T07:47:35.263Z,11.90
2019-04-27T07:50:04.778Z,12.20
2019-04-27T07:52:33.866Z,12.50
2019-04-27T07:55:02.983Z,12.60
2019-04-27T07:57:32.472Z,12.60
2019-04-27T08:00:02.673Z,12.70
2019-04-27T08:02:31.911Z,12.90
2019-04-27T08:05:00.933Z,13.10
2019-04-27T08:07:30.007Z,13.40
2019-04-27T08:10:01.391Z,13.70
2019-04-27T08:12:29.926Z,13.80
2019-04-27T08:15:00.081Z,13.50
2019-04-27T08:17:30.283Z,13.20
2019-04-27T08:19:59.694Z,12.80
2019-04-27T08:22:29.155Z,12.50
2019-04-27T08:24:59.512Z,12.30
2019-04-27T08:27:35.565Z,12.10
2019-04-27T08:30:23.074Z,11.90
2019-04-27T08:32:52.388Z,11.70
2019-04-27T08:35:21.486Z,11.50
2019-04-27T08:37:50.547Z,11.50
2019-04-27T08:40:19.664Z,11.50
2019-04-27T08:42:51.066Z,11.40
2019-04-27T08:45:19.697Z,11.40
2019-04-27T08:47:49.808Z,11.30
2019-04-27T08:50:19.299Z,11.20
2019-04-27T08:52:50.103Z,11.10
2019-04-27T08:55:19.686Z,11.00
2019-04-27T08:57:49.174Z,10.90
2019-04-27T09:00:19.658Z,10.70
2019-04-27T09:02:50.339Z,10.70
2019-04-27T09:05:25.757Z,10.70
2019-04-27T09:08:23.867Z,10.60
2019-04-27T09:11:11.562Z,10.60
2019-04-27T09:13:51.082Z,10.60
2019-04-27T09:16:59.498Z,10.60
2019-04-27T09:19:34.097Z,10.70
2019-04-27T09:22:15.311Z,10.80
2019-04-27T09:24:39.486Z,10.80
2019-04-27T09:27:09.630Z,10.80
2019-04-27T09:29:39.509Z,10.80
2019-04-27T09:32:09.034Z,10.80
2019-04-27T09:34:38.305Z,10.80
2019-04-27T09:37:07.623Z,10.70
2019-04-27T09:39:36.724Z,10.60
2019-04-27T09:42:06.543Z,10.50
2019-04-27T09:44:37.092Z,10.50
2019-04-27T09:47:06.394Z,10.40
2019-04-27T09:49:36.683Z,10.40
2019-04-27T09:52:06.449Z,10.50
2019-04-27T09:54:36.609Z,10.60
2019-04-27T09:57:06.942Z,10.70
2019-04-27T09:59:37.722Z,10.80
2019-04-27T10:02:08.651Z,10.90
2019-04-27T10:04:38.000Z,11.10
2019-04-27T10:07:07.101Z,11.10
2019-04-27T10:09:36.824Z,11.00
2019-04-27T10:12:07.428Z,10.90
2019-04-27T10:14:36.829Z,10.80
2019-04-27T10:17:05.930Z,10.70
2019-04-27T10:19:36.536Z,10.60
2019-04-27T10:22:06.006Z,10.60
2019-04-27T10:24:35.815Z,10.60
2019-04-27T10:27:07.971Z,10.60
2019-04-27T10:29:37.704Z,10.70
2019-04-27T10:32:07.166Z,10.70
2019-04-27T10:34:36.342Z,10.70
2019-04-27T10:37:06.099Z,10.60
2019-04-27T10:39:36.086Z,10.60
2019-04-27T10:42:06.804Z,10.80
2019-04-27T10:44:36.731Z,10.90
2019-04-27T10:47:06.056Z,10.90
2019-04-27T10:49:35.234Z,10.90
2019-04-27T10:52:05.921Z,10.80
2019-04-27T10:54:35.174Z,10.80
2019-04-27T10:57:05.932Z,10.80
2019-04-27T10:59:36.068Z,10.80
2019-04-27T11:02:05.370Z,10.80
2019-04-27T11:04:59.619Z,10.70
2019-04-27T11:07:32.916Z,10.80
2019-04-27T11:10:02.109Z,10.90
2019-04-27T11:12:31.232Z,11.00
2019-04-27T11:15:00.460Z,11.10
2019-04-27T11:17:30.337Z,11.10
2019-04-27T11:20:02.607Z,11.20
2019-04-27T11:22:30.406Z,11.20
2019-04-27T11:24:59.615Z,11.20
2019-04-27T11:27:28.800Z,11.10
2019-04-27T11:29:57.969Z,11.10
2019-04-27T11:32:27.179Z,11.00
2019-04-27T11:35:18.470Z,10.90
2019-04-27T11:37:48.551Z,10.70
2019-04-27T11:40:19.658Z,10.50
2019-04-27T11:42:48.924Z,10.40
2019-04-27T11:45:18.341Z,10.40
2019-04-27T11:47:47.516Z,10.60
2019-04-27T11:50:18.703Z,10.90
2019-04-27T11:52:48.073Z,11.00
2019-04-27T11:55:17.347Z,11.20
2019-04-27T11:57:47.035Z,11.20
2019-04-27T12:00:20.327Z,11.20
2019-04-27T12:02:49.614Z,11.10
2019-04-27T12:05:18.863Z,11.00
2019-04-27T12:07:48.051Z,11.00
2019-04-27T12:10:17.859Z,10.90
2019-04-27T12:12:46.987Z,10.90
2019-04-27T12:15:17.721Z,10.80
2019-04-27T12:17:46.878Z,10.80
2019-04-27T12:20:17.999Z,10.70
2019-04-27T12:22:46.921Z,10.70
2019-04-27T12:25:16.180Z,10.70
2019-04-27T12:28:23.067Z,10.60
2019-04-27T12:31:01.891Z,10.60
2019-04-27T12:33:31.010Z,10.60
2019-04-27T12:36:00.176Z,10.50
2019-04-27T12:38:31.529Z,10.50
2019-04-27T12:41:00.685Z,10.50
2019-04-27T12:43:29.756Z,10.50
2019-04-27T12:45:59.004Z,10.60
2019-04-27T12:48:28.283Z,10.70
2019-04-27T12:50:57.382Z,10.80
2019-04-27T12:53:32.357Z,10.90
2019-04-27T12:56:26.523Z,10.80
2019-04-27T12:58:59.882Z,10.70
2019-04-27T13:01:29.227Z,10.40
2019-04-27T13:03:59.282Z,10.00
2019-04-27T13:06:29.817Z,9.90
2019-04-27T13:08:59.043Z,10.00
2019-04-27T13:11:28.150Z,10.10
2019-04-27T13:13:57.718Z,10.40
2019-04-27T13:16:30.273Z,10.70
2019-04-27T13:18:58.352Z,11.10
2019-04-27T13:21:27.720Z,11.40
2019-04-27T13:24:03.993Z,11.60
2019-04-27T13:26:27.871Z,11.70
2019-04-27T13:28:58.319Z,11.90
2019-04-27T13:31:27.649Z,12.10
2019-04-27T13:33:56.798Z,12.20
2019-04-27T13:36:26.576Z,12.30
2019-04-27T13:38:56.049Z,12.30
2019-04-27T13:41:30.393Z,12.40
2019-04-27T13:43:57.537Z,12.40
2019-04-27T13:46:46.036Z,12.40
2019-04-27T13:49:40.861Z,12.30
2019-04-27T13:52:17.049Z,12.10
2019-04-27T13:54:46.250Z,12.00
2019-04-27T13:57:16.461Z,12.20
2019-04-27T13:59:46.264Z,12.50
2019-04-27T14:02:15.958Z,12.60
2019-04-27T14:04:45.285Z,12.50
2019-04-27T14:07:14.452Z,12.40
2019-04-27T14:09:43.642Z,12.20
2019-04-27T14:12:31.025Z,12.00
2019-04-27T14:15:01.582Z,11.90
2019-04-27T14:17:31.045Z,11.90
2019-04-27T14:20:00.229Z,12.10
2019-04-27T14:22:31.526Z,12.20
2019-04-27T14:25:00.317Z,12.30
2019-04-27T14:27:36.683Z,12.20
2019-04-27T14:30:05.677Z,12.20
2019-04-27T14:32:34.908Z,12.20
2019-04-27T14:35:04.458Z,12.30
2019-04-27T14:37:33.672Z,12.50
2019-04-27T14:40:02.813Z,12.60
2019-04-27T14:42:31.956Z,12.80
2019-04-27T14:45:01.218Z,12.90
2019-04-27T14:47:30.437Z,13.00
2019-04-27T14:49:59.840Z,13.10
2019-04-27T14:52:29.061Z,13.10
2019-04-27T14:54:58.339Z,13.00
2019-04-27T14:57:29.102Z,12.90
2019-04-27T15:00:00.018Z,12.80
2019-04-27T15:02:29.611Z,12.60
2019-04-27T15:04:58.704Z,12.00
2019-04-27T15:07:27.795Z,10.60
2019-04-27T15:09:57.581Z,9.50
2019-04-27T15:12:30.537Z,8.60
2019-04-27T15:14:59.425Z,8.00
2019-04-27T15:17:29.561Z,7.70
2019-04-27T15:20:03.334Z,7.50
2019-04-27T15:22:32.736Z,7.40
2019-04-27T15:25:13.551Z,7.50
2019-04-27T15:27:40.467Z,7.70
2019-04-27T15:30:14.429Z,7.90
2019-04-27T15:33:16.183Z,8.20
2019-04-27T15:35:48.722Z,8.50
2019-04-27T15:38:22.037Z,8.80
2019-04-27T15:41:16.281Z,9.00
2019-04-27T15:43:46.447Z,9.10
2019-04-27T15:46:15.631Z,9.20
2019-04-27T15:48:44.725Z,9.10
2019-04-27T15:51:17.508Z,9.10
2019-04-27T15:53:45.951Z,9.10
2019-04-27T15:56:15.893Z,9.10
2019-04-27T15:58:45.030Z,9.20
2019-04-27T16:01:14.256Z,9.20
2019-04-27T16:03:43.352Z,9.20
2019-04-27T16:06:12.529Z,9.30
2019-04-27T16:08:45.075Z,9.20
2019-04-27T16:11:16.382Z,9.20
2019-04-27T16:13:43.376Z,9.30
2019-04-27T16:16:12.541Z,9.30
2019-04-27T16:18:41.613Z,9.40
2019-04-27T16:21:11.038Z,9.40
2019-04-27T16:23:43.080Z,9.50
2019-04-27T16:26:14.938Z,9.50
2019-04-27T16:28:43.032Z,9.60
2019-04-27T16:31:12.805Z,9.60
2019-04-27T16:33:42.047Z,9.70
2019-04-27T16:36:11.205Z,9.80
2019-04-27T16:38:55.101Z,9.70
2019-04-27T16:41:24.196Z,9.70
2019-04-27T16:43:53.680Z,9.60
2019-04-27T16:46:22.836Z,9.60
2019-04-27T16:48:51.942Z,9.50
2019-04-27T16:51:21.029Z,9.40
2019-04-27T16:53:50.116Z,9.50
2019-04-27T16:56:20.836Z,9.50
2019-04-27T16:58:56.762Z,9.50
2019-04-27T17:01:25.328Z,9.60
2019-04-27T17:03:55.186Z,9.70
2019-04-27T17:06:24.479Z,9.80
2019-04-27T17:08:57.473Z,9.60
2019-04-27T17:11:24.630Z,9.50
2019-04-27T17:14:08.168Z,9.40
2019-04-27T17:16:46.279Z,9.40
2019-04-27T17:19:19.458Z,9.10
2019-04-27T17:21:48.700Z,8.70
2019-04-27T17:24:37.471Z,8.40
2019-04-27T17:27:04.894Z,8.10
2019-04-27T17:29:38.631Z,7.80
2019-04-27T17:32:09.896Z,7.60
2019-04-27T17:34:39.709Z,7.40
2019-04-27T17:37:09.068Z,7.30
2019-04-27T17:39:38.765Z,7.20
2019-04-27T17:42:08.503Z,7.10
2019-04-27T17:44:39.354Z,7.10
2019-04-27T17:47:10.486Z,7.00
2019-04-27T17:49:39.438Z,7.00
2019-04-27T17:52:08.882Z,7.00
2019-04-27T17:54:40.802Z,6.90
2019-04-27T17:57:13.244Z,6.90
2019-04-27T17:59:39.697Z,7.00
2019-04-27T18:02:13.144Z,7.00
2019-04-27T18:04:42.248Z,7.00
2019-04-27T18:07:13.846Z,7.00
2019-04-27T18:09:43.663Z,7.00
2019-04-27T18:12:14.888Z,7.00
2019-04-27T18:14:43.754Z,7.00
2019-04-27T18:17:12.870Z,7.00
2019-04-27T18:19:49.316Z,7.00
2019-04-27T18:22:19.931Z,7.10
2019-04-27T18:25:14.436Z,7.10
2019-04-27T18:28:10.004Z,7.10
2019-04-27T18:30:56.384Z,7.10
2019-04-27T18:33:25.468Z,7.10
2019-04-27T18:35:58.939Z,7.10
2019-04-27T18:38:25.408Z,7.10
2019-04-27T18:40:54.484Z,7.10
2019-04-27T18:43:23.563Z,7.10
2019-04-27T18:45:52.644Z,7.00
2019-04-27T18:48:40.201Z,7.00
2019-04-27T18:51:26.879Z,7.00
2019-04-27T18:53:59.762Z,6.90
2019-04-27T18:56:29.077Z,6.80
2019-04-27T18:58:59.976Z,6.80
2019-04-27T19:01:29.208Z,6.80
2019-04-27T19:03:58.707Z,6.80
2019-04-27T19:06:28.982Z,6.80
2019-04-27T19:08:59.080Z,6.70
2019-04-27T19:11:29.067Z,6.80
2019-04-27T19:13:59.061Z,6.70
2019-04-27T19:16:29.198Z,6.70
2019-04-27T19:18:58.670Z,6.70
2019-04-27T19:21:28.836Z,6.70
2019-04-27T19:23:58.579Z,6.70
2019-04-27T19:26:52.840Z,6.60
2019-04-27T19:29:25.410Z,6.70
2019-04-27T19:31:58.668Z,6.60
2019-04-27T19:34:28.625Z,6.70
2019-04-27T19:36:59.279Z,6.70
2019-04-27T19:39:28.754Z,6.70
2019-04-27T19:42:01.423Z,6.70
2019-04-27T19:44:29.320Z,6.70
2019-04-27T19:47:00.231Z,6.70
2019-04-27T19:49:31.744Z,6.70
2019-04-27T19:52:00.402Z,6.70
2019-04-27T19:54:30.280Z,6.80
2019-04-27T19:56:59.737Z,6.80
2019-04-27T19:59:38.149Z,6.80
2019-04-27T20:02:11.941Z,6.80
2019-04-27T20:04:43.176Z,6.80
2019-04-27T20:07:12.302Z,6.80
2019-04-27T20:09:55.495Z,6.80
2019-04-27T20:12:24.621Z,6.80
2019-04-27T20:14:56.744Z,6.70
2019-04-27T20:17:31.505Z,6.70
2019-04-27T20:20:01.103Z,6.60
2019-04-27T20:22:30.346Z,6.60
2019-04-27T20:25:01.501Z,6.60
2019-04-27T20:27:34.871Z,6.60
2019-04-27T20:30:03.018Z,6.60
2019-04-27T20:32:32.232Z,6.50
2019-04-27T20:35:01.628Z,6.40
2019-04-27T20:37:31.360Z,6.40
2019-04-27T20:40:01.718Z,6.30
2019-04-27T20:42:31.750Z,6.20
2019-04-27T20:45:02.002Z,6.20
2019-04-27T20:47:32.151Z,6.10
2019-04-27T20:50:01.347Z,6.10
2019-04-27T20:52:58.564Z,6.10
2019-04-27T20:55:27.749Z,6.10
2019-04-27T20:58:02.710Z,6.00
2019-04-27T21:00:27.697Z,6.00
2019-04-27T21:03:32.784Z,5.90
2019-04-27T21:06:29.961Z,5.80
2019-04-27T21:08:59.070Z,5.70
2019-04-27T21:11:44.042Z,5.70
2019-04-27T21:14:13.163Z,5.60
2019-04-27T21:16:42.427Z,5.50
2019-04-27T21:19:14.897Z,5.50
2019-04-27T21:21:44.130Z,5.40
2019-04-27T21:24:13.261Z,5.40
2019-04-27T21:26:43.585Z,5.40
2019-04-27T21:29:12.803Z,5.30
2019-04-27T21:31:42.191Z,5.30
2019-04-27T21:34:11.440Z,5.20
2019-04-27T21:36:42.247Z,5.10
2019-04-27T21:39:11.651Z,5.10
2019-04-27T21:41:41.381Z,5.10
2019-04-27T21:44:11.607Z,5.00
2019-04-27T21:46:41.667Z,4.90
2019-04-27T21:49:12.678Z,4.90
2019-04-27T21:52:01.384Z,4.90
2019-04-27T21:54:32.724Z,4.80
2019-04-27T21:57:02.223Z,4.70
2019-04-27T21:59:31.296Z,4.70
2019-04-27T22:02:02.372Z,4.70
2019-04-27T22:04:31.655Z,4.70
2019-04-27T22:07:01.351Z,4.70
2019-04-27T22:09:30.634Z,4.70
2019-04-27T22:12:02.562Z,4.60
2019-04-27T22:14:31.732Z,4.60
2019-04-27T22:17:00.933Z,4.60
2019-04-27T22:19:31.114Z,4.60
2019-04-27T22:22:02.123Z,4.60
2019-04-27T22:24:36.753Z,4.50
2019-04-27T22:27:05.851Z,4.50
2019-04-27T22:29:35.069Z,4.40
2019-04-27T22:32:04.342Z,4.40
2019-04-27T22:34:33.427Z,4.40
2019-04-27T22:37:02.795Z,4.30
2019-04-27T22:39:41.631Z,4.30
2019-04-27T22:42:32.819Z,4.30
2019-04-27T22:45:15.843Z,4.30
2019-04-27T22:47:44.981Z,4.20
2019-04-27T22:50:14.052Z,4.10
2019-04-27T22:52:43.149Z,4.20
2019-04-27T22:55:12.241Z,4.20
2019-04-27T22:58:01.650Z,4.20
2019-04-27T23:01:05.261Z,4.20
2019-04-27T23:03:35.487Z,4.30
2019-04-27T23:06:04.581Z,4.40
2019-04-27T23:08:33.671Z,4.50
2019-04-27T23:11:03.347Z,4.50
2019-04-27T23:13:32.464Z,4.60
2019-04-27T23:16:03.259Z,4.70
2019-04-27T23:18:32.394Z,4.70
2019-04-27T23:21:01.643Z,4.80
2019-04-27T23:23:31.067Z,4.80
2019-04-27T23:26:01.769Z,4.80
2019-04-27T23:28:31.341Z,4.70
2019-04-27T23:31:10.897Z,4.70
2019-04-27T23:33:42.442Z,4.60
2019-04-27T23:36:11.573Z,4.50
2019-04-27T23:38:40.912Z,4.50
2019-04-27T23:41:11.621Z,4.50
2019-04-27T23:43:40.895Z,4.40
2019-04-27T23:46:11.594Z,4.30
2019-04-27T23:48:44.275Z,4.30
2019-04-27T23:51:32.923Z,4.30
2019-04-27T23:54:02.005Z,4.30
2019-04-27T23:56:31.809Z,4.30
2019-04-27T23:59:01.141Z,4.30
